sensor_id;sensor_type;location;lat;lon;timestamp;P1;durP1;ratioP1;P2;durP2;ratioP2
16430;SDS011;8325;49.284;7.238;2023-11-19T05:04:31;6.35;;;4.53;;
16430;SDS011;8325;49.284;7.238;2023-11-19T05:08:43;6.40;;;4.07;;
16430;SDS011;8325;49.284;7.238;2023-11-19T05:12:56;5.45;;;3.90;;
16430;SDS011;8325;49.284;7.238;2023-11-19T05:17:08;4.28;;;3.70;;
16430;SDS011;8325;49.284;7.238;2023-11-19T05:21:20;5.20;;;3.50;;
16430;SDS011;8325;49.284;7.238;2023-11-19T05:25:32;4.15;;;3.53;;
16430;SDS011;8325;49.284;7.238;2023-11-19T05:29:44;5.13;;;3.75;;
16430;SDS011;8325;49.284;7.238;2023-11-19T05:33:55;3.40;;;3.10;;
16430;SDS011;8325;49.284;7.238;2023-11-19T05:38:07;5.35;;;3.45;;
16430;SDS011;8325;49.284;7.238;2023-11-19T05:42:18;4.13;;;3.15;;
16430;SDS011;8325;49.284;7.238;2023-11-19T05:46:30;4.28;;;3.20;;
16430;SDS011;8325;49.284;7.238;2023-11-19T05:50:42;4.07;;;3.05;;
16430;SDS011;8325;49.284;7.238;2023-11-19T05:54:53;3.42;;;2.97;;
16430;SDS011;8325;49.284;7.238;2023-11-19T05:59:05;4.03;;;2.80;;
16430;SDS011;8325;49.284;7.238;2023-11-19T06:03:26;3.78;;;2.85;;
16430;SDS011;8325;49.284;7.238;2023-11-19T06:07:38;5.22;;;2.90;;
16430;SDS011;8325;49.284;7.238;2023-11-19T06:11:51;4.38;;;2.85;;
16430;SDS011;8325;49.284;7.238;2023-11-19T06:16:02;3.05;;;2.75;;
16430;SDS011;8325;49.284;7.238;2023-11-19T06:20:14;2.70;;;2.50;;
16430;SDS011;8325;49.284;7.238;2023-11-19T06:24:26;2.92;;;1.77;;
16430;SDS011;8325;49.284;7.238;2023-11-19T06:28:37;2.10;;;1.90;;
16430;SDS011;8325;49.284;7.238;2023-11-19T06:32:49;1.42;;;1.33;;
16430;SDS011;8325;49.284;7.238;2023-11-19T06:37:01;1.48;;;1.30;;
16430;SDS011;8325;49.284;7.238;2023-11-19T06:41:15;3.08;;;2.35;;
16430;SDS011;8325;49.284;7.238;2023-11-19T06:45:27;2.50;;;2.05;;
16430;SDS011;8325;49.284;7.238;2023-11-19T06:49:38;3.45;;;2.22;;
16430;SDS011;8325;49.284;7.238;2023-11-19T06:53:50;2.38;;;2.17;;
16430;SDS011;8325;49.284;7.238;2023-11-19T06:58:02;6.32;;;4.72;;
16430;SDS011;8325;49.284;7.238;2023-11-19T07:02:14;5.18;;;3.65;;
16430;SDS011;8325;49.284;7.238;2023-11-19T07:06:26;4.13;;;3.17;;
16430;SDS011;8325;49.284;7.238;2023-11-19T07:10:40;4.53;;;3.30;;
16430;SDS011;8325;49.284;7.238;2023-11-19T07:14:52;4.22;;;2.95;;
16430;SDS011;8325;49.284;7.238;2023-11-19T07:19:04;2.67;;;2.47;;
16430;SDS011;8325;49.284;7.238;2023-11-19T07:23:16;3.63;;;2.80;;
16430;SDS011;8325;49.284;7.238;2023-11-19T07:27:28;5.95;;;3.22;;
16430;SDS011;8325;49.284;7.238;2023-11-19T07:31:39;4.35;;;3.50;;
16430;SDS011;8325;49.284;7.238;2023-11-19T07:35:51;6.07;;;3.20;;
16430;SDS011;8325;49.284;7.238;2023-11-19T07:40:03;4.90;;;3.20;;
16430;SDS011;8325;49.284;7.238;2023-11-19T07:44:14;3.83;;;2.65;;
16430;SDS011;8325;49.284;7.238;2023-11-19T07:48:26;4.80;;;2.80;;
16430;SDS011;8325;49.284;7.238;2023-11-19T07:52:38;2.67;;;2.47;;
16430;SDS011;8325;49.284;7.238;2023-11-19T07:56:49;6.20;;;3.22;;
16430;SDS011;8325;49.284;7.238;2023-11-19T08:01:01;3.80;;;2.70;;
16430;SDS011;8325;49.284;7.238;2023-11-19T08:05:13;3.35;;;2.85;;
16430;SDS011;8325;49.284;7.238;2023-11-19T08:09:25;3.20;;;2.67;;
16430;SDS011;8325;49.284;7.238;2023-11-19T08:13:37;4.05;;;3.30;;
16430;SDS011;8325;49.284;7.238;2023-11-19T08:17:49;3.95;;;2.97;;
16430;SDS011;8325;49.284;7.238;2023-11-19T08:22:00;7.63;;;3.17;;
16430;SDS011;8325;49.284;7.238;2023-11-19T08:26:12;7.32;;;4.50;;
16430;SDS011;8325;49.284;7.238;2023-11-19T08:30:27;5.50;;;3.92;;
16430;SDS011;8325;49.284;7.238;2023-11-19T08:34:39;5.38;;;3.47;;
16430;SDS011;8325;49.284;7.238;2023-11-19T08:38:51;5.13;;;3.60;;
16430;SDS011;8325;49.284;7.238;2023-11-19T08:43:03;3.10;;;2.80;;
16430;SDS011;8325;49.284;7.238;2023-11-19T08:47:14;3.75;;;3.00;;
16430;SDS011;8325;49.284;7.238;2023-11-19T08:51:27;4.78;;;2.60;;
16430;SDS011;8325;49.284;7.238;2023-11-19T08:55:39;4.32;;;2.47;;
16430;SDS011;8325;49.284;7.238;2023-11-19T08:59:51;3.40;;;2.15;;
16430;SDS011;8325;49.284;7.238;2023-11-19T09:04:02;4.13;;;2.08;;
16430;SDS011;8325;49.284;7.238;2023-11-19T09:08:15;3.78;;;1.98;;
16430;SDS011;8325;49.284;7.238;2023-11-19T09:12:27;5.35;;;1.98;;
16430;SDS011;8325;49.284;7.238;2023-11-19T09:16:39;2.92;;;1.90;;
16430;SDS011;8325;49.284;7.238;2023-11-19T09:20:50;2.03;;;1.45;;
16430;SDS011;8325;49.284;7.238;2023-11-19T09:25:02;3.70;;;2.47;;
16430;SDS011;8325;49.284;7.238;2023-11-19T09:29:16;2.42;;;1.65;;
16430;SDS011;8325;49.284;7.238;2023-11-19T09:33:28;3.92;;;1.60;;
16430;SDS011;8325;49.284;7.238;2023-11-19T09:37:40;2.50;;;1.50;;
16430;SDS011;8325;49.284;7.238;2023-11-19T09:41:52;3.95;;;1.38;;
16430;SDS011;8325;49.284;7.238;2023-11-19T09:46:07;2.45;;;1.63;;
16430;SDS011;8325;49.284;7.238;2023-11-19T09:50:22;3.50;;;1.98;;
16430;SDS011;8325;49.284;7.238;2023-11-19T09:54:34;2.63;;;1.83;;
16430;SDS011;8325;49.284;7.238;2023-11-19T09:58:46;3.67;;;1.52;;
16430;SDS011;8325;49.284;7.238;2023-11-19T10:02:58;4.03;;;1.20;;
16430;SDS011;8325;49.284;7.238;2023-11-19T10:07:11;2.60;;;1.75;;
16430;SDS011;8325;49.284;7.238;2023-11-19T10:11:23;1.60;;;0.93;;
16430;SDS011;8325;49.284;7.238;2023-11-19T10:15:37;4.05;;;1.30;;
16430;SDS011;8325;49.284;7.238;2023-11-19T10:19:48;3.17;;;1.52;;
16430;SDS011;8325;49.284;7.238;2023-11-19T10:24:00;4.78;;;1.65;;
16430;SDS011;8325;49.284;7.238;2023-11-19T10:28:14;3.30;;;1.20;;
16430;SDS011;8325;49.284;7.238;2023-11-19T10:32:27;3.17;;;1.27;;
16430;SDS011;8325;49.284;7.238;2023-11-19T10:36:39;2.63;;;1.13;;
16430;SDS011;8325;49.284;7.238;2023-11-19T10:40:55;3.00;;;1.00;;
16430;SDS011;8325;49.284;7.238;2023-11-19T10:45:17;2.58;;;1.13;;
16430;SDS011;8325;49.284;7.238;2023-11-19T10:49:33;4.20;;;0.88;;
16430;SDS011;8325;49.284;7.238;2023-11-19T10:53:46;2.80;;;1.00;;
16430;SDS011;8325;49.284;7.238;2023-11-19T10:58:02;1.65;;;1.10;;
16430;SDS011;8325;49.284;7.238;2023-11-19T11:02:14;2.28;;;0.90;;
16430;SDS011;8325;49.284;7.238;2023-11-19T11:06:30;2.47;;;0.90;;
16430;SDS011;8325;49.284;7.238;2023-11-19T11:10:43;1.67;;;0.95;;
16430;SDS011;8325;49.284;7.238;2023-11-19T11:14:59;1.67;;;1.08;;
16430;SDS011;8325;49.284;7.238;2023-11-19T11:19:12;4.15;;;1.52;;
16430;SDS011;8325;49.284;7.238;2023-11-19T11:28:58;2.65;;;1.52;;
16430;SDS011;8325;49.284;7.238;2023-11-19T11:32:58;1.65;;;1.23;;
16430;SDS011;8325;49.284;7.238;2023-11-19T11:37:29;2.47;;;1.38;;
16430;SDS011;8325;49.284;7.238;2023-11-19T11:41:43;2.83;;;1.85;;
16430;SDS011;8325;49.284;7.238;2023-11-19T11:45:56;3.13;;;0.82;;
16430;SDS011;8325;49.284;7.238;2023-11-19T11:58:40;2.50;;;1.20;;
16430;SDS011;8325;49.284;7.238;2023-11-19T12:02:56;1.75;;;1.23;;
16430;SDS011;8325;49.284;7.238;2023-11-19T12:07:13;3.30;;;1.70;;
16430;SDS011;8325;49.284;7.238;2023-11-19T12:11:28;4.93;;;2.20;;
16430;SDS011;8325;49.284;7.238;2023-11-19T12:16:29;1.65;;;0.90;;
16430;SDS011;8325;49.284;7.238;2023-11-19T12:20:19;2.28;;;1.27;;
16430;SDS011;8325;49.284;7.238;2023-11-19T12:24:35;5.35;;;2.20;;
16430;SDS011;8325;49.284;7.238;2023-11-19T12:28:57;5.55;;;1.60;;
16430;SDS011;8325;49.284;7.238;2023-11-19T12:33:09;4.93;;;1.40;;
16430;SDS011;8325;49.284;7.238;2023-11-19T12:37:22;3.85;;;1.80;;
16430;SDS011;8325;49.284;7.238;2023-11-19T12:41:48;3.95;;;1.67;;
16430;SDS011;8325;49.284;7.238;2023-11-19T12:46:00;2.60;;;1.67;;
16430;SDS011;8325;49.284;7.238;2023-11-19T12:50:14;5.22;;;2.25;;
16430;SDS011;8325;49.284;7.238;2023-11-19T12:54:35;3.35;;;0.95;;
16430;SDS011;8325;49.284;7.238;2023-11-19T12:58:47;3.85;;;1.20;;
16430;SDS011;8325;49.284;7.238;2023-11-19T13:02:58;3.53;;;0.90;;
16430;SDS011;8325;49.284;7.238;2023-11-19T13:07:10;3.40;;;1.00;;
16430;SDS011;8325;49.284;7.238;2023-11-19T13:11:34;4.40;;;1.10;;
16430;SDS011;8325;49.284;7.238;2023-11-19T13:15:47;2.50;;;0.95;;
16430;SDS011;8325;49.284;7.238;2023-11-19T13:19:59;1.85;;;0.93;;
16430;SDS011;8325;49.284;7.238;2023-11-19T13:24:11;3.20;;;1.27;;
16430;SDS011;8325;49.284;7.238;2023-11-19T13:28:22;2.38;;;0.90;;
16430;SDS011;8325;49.284;7.238;2023-11-19T13:32:34;3.33;;;1.05;;
16430;SDS011;8325;49.284;7.238;2023-11-19T13:36:46;4.90;;;1.20;;
16430;SDS011;8325;49.284;7.238;2023-11-19T13:40:57;3.05;;;1.25;;
16430;SDS011;8325;49.284;7.238;2023-11-19T13:45:13;3.95;;;1.00;;
16430;SDS011;8325;49.284;7.238;2023-11-19T13:49:26;4.18;;;1.08;;
16430;SDS011;8325;49.284;7.238;2023-11-19T13:53:38;4.68;;;2.05;;
16430;SDS011;8325;49.284;7.238;2023-11-19T13:57:53;2.15;;;0.95;;
16430;SDS011;8325;49.284;7.238;2023-11-19T14:02:05;3.28;;;1.35;;
16430;SDS011;8325;49.284;7.238;2023-11-19T14:06:18;2.33;;;1.25;;
16430;SDS011;8325;49.284;7.238;2023-11-19T14:10:30;3.70;;;1.50;;
16430;SDS011;8325;49.284;7.238;2023-11-19T14:14:41;3.50;;;1.40;;
16430;SDS011;8325;49.284;7.238;2023-11-19T14:18:53;1.98;;;0.90;;
16430;SDS011;8325;49.284;7.238;2023-11-19T14:23:06;3.92;;;1.23;;
16430;SDS011;8325;49.284;7.238;2023-11-19T14:27:17;3.17;;;0.77;;
16430;SDS011;8325;49.284;7.238;2023-11-19T14:31:29;3.58;;;0.90;;
16430;SDS011;8325;49.284;7.238;2023-11-19T14:35:40;3.03;;;1.10;;
16430;SDS011;8325;49.284;7.238;2023-11-19T14:39:52;4.60;;;1.15;;
16430;SDS011;8325;49.284;7.238;2023-11-19T14:44:04;3.50;;;1.25;;
16430;SDS011;8325;49.284;7.238;2023-11-19T14:48:16;3.97;;;1.27;;
16430;SDS011;8325;49.284;7.238;2023-11-19T14:52:29;4.40;;;1.23;;
16430;SDS011;8325;49.284;7.238;2023-11-19T14:56:41;4.15;;;1.17;;
16430;SDS011;8325;49.284;7.238;2023-11-19T15:00:53;6.22;;;1.30;;
16430;SDS011;8325;49.284;7.238;2023-11-19T15:05:05;1.83;;;0.90;;
16430;SDS011;8325;49.284;7.238;2023-11-19T15:09:16;5.47;;;1.20;;
16430;SDS011;8325;49.284;7.238;2023-11-19T15:13:29;3.58;;;1.40;;
16430;SDS011;8325;49.284;7.238;2023-11-19T15:17:40;5.40;;;1.52;;
16430;SDS011;8325;49.284;7.238;2023-11-19T15:21:52;4.45;;;1.20;;
16430;SDS011;8325;49.284;7.238;2023-11-19T15:26:06;3.97;;;1.20;;
16430;SDS011;8325;49.284;7.238;2023-11-19T15:30:21;3.70;;;1.27;;
16430;SDS011;8325;49.284;7.238;2023-11-19T15:34:33;2.83;;;1.52;;
16430;SDS011;8325;49.284;7.238;2023-11-19T15:38:46;3.38;;;1.20;;
16430;SDS011;8325;49.284;7.238;2023-11-19T15:43:01;6.05;;;1.33;;
16430;SDS011;8325;49.284;7.238;2023-11-19T15:47:13;6.57;;;1.65;;
16430;SDS011;8325;49.284;7.238;2023-11-19T15:51:25;5.07;;;1.27;;
16430;SDS011;8325;49.284;7.238;2023-11-19T15:55:37;6.70;;;1.50;;
16430;SDS011;8325;49.284;7.238;2023-11-19T15:59:48;6.35;;;1.40;;
16430;SDS011;8325;49.284;7.238;2023-11-19T16:04:00;3.40;;;1.33;;
16430;SDS011;8325;49.284;7.238;2023-11-19T16:08:12;3.88;;;1.75;;
16430;SDS011;8325;49.284;7.238;2023-11-19T16:12:24;4.25;;;1.92;;
16430;SDS011;8325;49.284;7.238;2023-11-19T16:16:36;5.88;;;1.70;;
16430;SDS011;8325;49.284;7.238;2023-11-19T16:20:47;4.28;;;1.33;;
16430;SDS011;8325;49.284;7.238;2023-11-19T16:24:59;6.10;;;1.88;;
16430;SDS011;8325;49.284;7.238;2023-11-19T16:29:11;5.07;;;1.98;;
16430;SDS011;8325;49.284;7.238;2023-11-19T16:33:22;7.53;;;3.15;;
16430;SDS011;8325;49.284;7.238;2023-11-19T16:37:41;7.70;;;1.92;;
16430;SDS011;8325;49.284;7.238;2023-11-19T16:41:53;3.65;;;1.38;;
16430;SDS011;8325;49.284;7.238;2023-11-19T16:46:05;4.78;;;1.33;;
16430;SDS011;8325;49.284;7.238;2023-11-19T16:50:17;6.88;;;1.75;;
16430;SDS011;8325;49.284;7.238;2023-11-19T16:54:30;4.60;;;1.50;;
16430;SDS011;8325;49.284;7.238;2023-11-19T16:58:43;5.60;;;1.90;;
16430;SDS011;8325;49.284;7.238;2023-11-19T17:02:55;2.75;;;1.38;;
16430;SDS011;8325;49.284;7.238;2023-11-19T17:07:10;4.55;;;1.80;;
16430;SDS011;8325;49.284;7.238;2023-11-19T17:11:21;4.55;;;1.42;;
16430;SDS011;8325;49.284;7.238;2023-11-19T17:15:33;5.68;;;2.10;;
16430;SDS011;8325;49.284;7.238;2023-11-19T17:19:45;3.70;;;1.60;;
16430;SDS011;8325;49.284;7.238;2023-11-19T17:23:57;4.88;;;2.25;;
16430;SDS011;8325;49.284;7.238;2023-11-19T17:28:09;4.25;;;1.92;;
16430;SDS011;8325;49.284;7.238;2023-11-19T17:32:21;7.43;;;2.20;;
16430;SDS011;8325;49.284;7.238;2023-11-19T17:36:33;8.65;;;2.63;;
16430;SDS011;8325;49.284;7.238;2023-11-19T17:40:45;9.18;;;2.05;;
16430;SDS011;8325;49.284;7.238;2023-11-19T17:44:58;5.45;;;1.67;;
16430;SDS011;8325;49.284;7.238;2023-11-19T17:49:10;8.65;;;2.08;;
16430;SDS011;8325;49.284;7.238;2023-11-19T17:53:22;10.70;;;2.30;;
16430;SDS011;8325;49.284;7.238;2023-11-19T17:57:34;5.25;;;2.00;;
16430;SDS011;8325;49.284;7.238;2023-11-19T18:01:45;5.47;;;2.03;;
16430;SDS011;8325;49.284;7.238;2023-11-19T18:05:57;6.97;;;2.35;;
16430;SDS011;8325;49.284;7.238;2023-11-19T18:10:09;4.72;;;2.25;;
16430;SDS011;8325;49.284;7.238;2023-11-19T18:14:22;8.10;;;1.90;;
16430;SDS011;8325;49.284;7.238;2023-11-19T18:18:35;6.05;;;2.13;;
16430;SDS011;8325;49.284;7.238;2023-11-19T18:22:47;4.70;;;1.98;;
16430;SDS011;8325;49.284;7.238;2023-11-19T18:26:59;9.80;;;3.03;;
16430;SDS011;8325;49.284;7.238;2023-11-19T18:31:11;6.40;;;2.88;;
16430;SDS011;8325;49.284;7.238;2023-11-19T18:35:22;9.05;;;3.05;;
16430;SDS011;8325;49.284;7.238;2023-11-19T18:39:36;7.38;;;2.55;;
16430;SDS011;8325;49.284;7.238;2023-11-19T18:43:51;8.00;;;2.55;;
16430;SDS011;8325;49.284;7.238;2023-11-19T18:48:03;10.20;;;2.22;;
16430;SDS011;8325;49.284;7.238;2023-11-19T18:52:17;7.25;;;2.83;;
16430;SDS011;8325;49.284;7.238;2023-11-19T18:56:28;6.60;;;2.33;;
16430;SDS011;8325;49.284;7.238;2023-11-19T19:00:41;9.38;;;2.63;;
16430;SDS011;8325;49.284;7.238;2023-11-19T19:04:54;8.90;;;2.30;;
16430;SDS011;8325;49.284;7.238;2023-11-19T19:09:05;6.13;;;1.98;;
16430;SDS011;8325;49.284;7.238;2023-11-19T19:13:17;8.02;;;2.22;;
16430;SDS011;8325;49.284;7.238;2023-11-19T19:17:29;10.90;;;2.30;;
16430;SDS011;8325;49.284;7.238;2023-11-19T19:21:41;11.82;;;2.40;;
16430;SDS011;8325;49.284;7.238;2023-11-19T19:25:52;7.68;;;2.63;;
16430;SDS011;8325;49.284;7.238;2023-11-19T19:30:06;9.57;;;2.50;;
16430;SDS011;8325;49.284;7.238;2023-11-19T19:34:19;10.73;;;2.40;;
16430;SDS011;8325;49.284;7.238;2023-11-19T19:38:31;11.38;;;2.72;;
16430;SDS011;8325;49.284;7.238;2023-11-19T19:42:42;9.25;;;2.88;;
16430;SDS011;8325;49.284;7.238;2023-11-19T19:46:54;12.90;;;3.13;;
16430;SDS011;8325;49.284;7.238;2023-11-19T19:51:06;6.25;;;2.13;;
16430;SDS011;8325;49.284;7.238;2023-11-19T19:55:18;9.43;;;2.40;;
16430;SDS011;8325;49.284;7.238;2023-11-19T19:59:32;10.80;;;2.25;;
16430;SDS011;8325;49.284;7.238;2023-11-19T20:03:45;7.60;;;2.78;;
16430;SDS011;8325;49.284;7.238;2023-11-19T20:07:56;11.18;;;2.30;;
16430;SDS011;8325;49.284;7.238;2023-11-19T20:12:10;6.53;;;2.03;;
16430;SDS011;8325;49.284;7.238;2023-11-19T20:16:22;6.28;;;2.40;;
16430;SDS011;8325;49.284;7.238;2023-11-19T20:20:33;7.45;;;2.28;;
16430;SDS011;8325;49.284;7.238;2023-11-19T20:24:47;6.32;;;2.50;;
16430;SDS011;8325;49.284;7.238;2023-11-19T20:28:59;10.38;;;2.72;;
16430;SDS011;8325;49.284;7.238;2023-11-19T20:33:13;13.70;;;3.20;;
16430;SDS011;8325;49.284;7.238;2023-11-19T20:37:25;7.45;;;1.98;;
16430;SDS011;8325;49.284;7.238;2023-11-19T20:41:41;7.22;;;2.20;;
16430;SDS011;8325;49.284;7.238;2023-11-19T20:45:53;6.75;;;2.10;;
16430;SDS011;8325;49.284;7.238;2023-11-19T20:50:05;10.93;;;2.47;;
16430;SDS011;8325;49.284;7.238;2023-11-19T20:54:19;7.70;;;2.47;;
16430;SDS011;8325;49.284;7.238;2023-11-19T20:58:50;9.40;;;2.63;;
16430;SDS011;8325;49.284;7.238;2023-11-19T21:03:01;7.88;;;2.38;;
16430;SDS011;8325;49.284;7.238;2023-11-19T21:07:14;6.60;;;2.10;;
16430;SDS011;8325;49.284;7.238;2023-11-19T21:11:28;6.50;;;2.80;;
16430;SDS011;8325;49.284;7.238;2023-11-19T21:15:40;9.85;;;2.80;;
16430;SDS011;8325;49.284;7.238;2023-11-19T21:20:05;10.00;;;2.78;;
16430;SDS011;8325;49.284;7.238;2023-11-19T21:24:18;12.15;;;2.88;;
16430;SDS011;8325;49.284;7.238;2023-11-19T21:28:30;13.80;;;3.25;;
16430;SDS011;8325;49.284;7.238;2023-11-19T21:32:44;10.15;;;4.03;;
16430;SDS011;8325;49.284;7.238;2023-11-19T21:36:56;12.50;;;3.15;;
16430;SDS011;8325;49.284;7.238;2023-11-19T21:41:07;13.95;;;3.03;;
16430;SDS011;8325;49.284;7.238;2023-11-19T21:45:19;13.13;;;2.67;;
16430;SDS011;8325;49.284;7.238;2023-11-19T21:49:31;13.18;;;3.38;;
16430;SDS011;8325;49.284;7.238;2023-11-19T21:53:43;6.95;;;2.40;;
16430;SDS011;8325;49.284;7.238;2023-11-19T21:57:55;5.28;;;1.83;;
16430;SDS011;8325;49.284;7.238;2023-11-19T22:02:06;7.55;;;2.45;;
16430;SDS011;8325;49.284;7.238;2023-11-19T22:06:18;8.25;;;2.22;;
16430;SDS011;8325;49.284;7.238;2023-11-19T22:10:30;12.05;;;2.63;;
16430;SDS011;8325;49.284;7.238;2023-11-19T22:14:41;7.70;;;2.17;;
16430;SDS011;8325;49.284;7.238;2023-11-19T22:18:53;11.07;;;2.33;;
16430;SDS011;8325;49.284;7.238;2023-11-19T22:23:04;9.95;;;2.90;;
16430;SDS011;8325;49.284;7.238;2023-11-19T22:27:16;8.38;;;1.90;;
